Flight Track Log - Related Links

Times and Time Zones

All times are in EDT time to prevent confusion due to time zone crossing. See the AWI3551 flight status page for this flight to view local times or setup timezone preferences in your user account.

Time Position Orientation Groundspeed Altitude Reporting Facility
EDT Latitude Longitude Course Direction KTS MPH feet Rate Location/Type
Thu 05:30:59 AM 42.9333 -78.7500 174° South 158 182 1,700  Level Buffalo TRACON
Thu 05:32:05 AM 42.8667 -78.7833 200° South 212 244 4,000 1,983 Climbing Buffalo TRACON
Thu 05:32:57 AM 42.8256 -78.7856 182° South 242 278 5,600 2,143 Climbing Cleveland Center
Thu 05:33:00 AM 42.6240 -78.6848 172° South  Level FlightAware Approximate
Thu 05:33:57 AM 42.7461 -78.7625 168° South 253 291 8,000  Level Cleveland Center
Thu 05:34:00 AM 42.5213 -78.6647 173° South  Level FlightAware Approximate
Thu 05:34:57 AM 42.6667 -78.7450 171° South 276 318 9,900  Level Cleveland Center
Thu 05:35:00 AM 42.4182 -78.6500 180° South  Level FlightAware Approximate
Thu 05:35:57 AM 42.5975 -78.7272 169° South 282 325 11,900  Level Cleveland Center
Thu 05:36:00 AM 42.3148 -78.6426 174° South  Level FlightAware Approximate
Thu 05:36:57 AM 42.5217 -78.6758 153° Southeast 287 330 14,200  Level Cleveland Center
Thu 05:37:57 AM 42.4414 -78.6164 151° Southeast 307 353 16,000 1,750 Climbing Cleveland Center
Thu 05:38:57 AM 42.3589 -78.5544 151° Southeast 329 379 17,700 1,700 Climbing Cleveland Center
Thu 05:39:57 AM 42.2703 -78.4900 152° Southeast 351 404 19,400 1,750 Climbing Cleveland Center
Thu 05:40:57 AM 42.1711 -78.4175 152° Southeast 363 418 21,200 1,600 Climbing Cleveland Center
Thu 05:41:57 AM 42.0800 -78.3506 151° Southeast 368 423 22,600 1,350 Climbing Cleveland Center
Thu 05:42:57 AM 41.9869 -78.2783 150° Southeast 373 429 23,900 878 Climbing Cleveland Center
Thu 05:44:41 AM 41.8228 -78.1608 152° Southeast 386 444 25,000 400 Climbing New York Center
Thu 05:45:42 AM 41.7269 -78.0919 152° Southeast 392 451 25,000  Level New York Center
Thu 05:46:41 AM 41.6314 -78.0206 151° Southeast 397 457 25,000  Level New York Center
Thu 05:47:43 AM 41.5356 -77.9519 152° Southeast 397 457 25,000  Level New York Center
Thu 05:48:40 AM 41.4456 -77.8869 152° Southeast 392 451 25,000  Level New York Center
Thu 05:49:41 AM 41.3581 -77.8194 150° Southeast 392 451 25,000  Level New York Center
Thu 05:50:40 AM 41.2639 -77.7544 153° Southeast 392 451 25,000 -347 Level New York Center
Thu 05:51:42 AM 41.1722 -77.6844 150° Southeast 392 451 24,300 -836 Descending New York Center
Thu 05:52:42 AM 41.0781 -77.6197 153° Southeast 392 451 23,300 -1,017 Descending New York Center
Thu 05:53:40 AM 40.9881 -77.5503 150° Southeast 387 445 22,300 -1,000 Descending New York Center
Thu 05:54:42 AM 40.9117 -77.4656 140° Southeast 372 428 21,300 -984 Descending New York Center
Thu 05:55:42 AM 40.8372 -77.3789 139° Southeast 366 421 20,300 -1,059 Descending New York Center
Thu 05:56:41 AM 40.7528 -77.2856 140° Southeast 366 421 19,200 -655 Descending New York Center
Thu 05:57:41 AM 40.6803 -77.2022 139° Southeast 360 414 19,000 -99 Descending New York Center
Thu 05:58:42 AM 40.6181 -77.1225 136° Southeast 360 414 19,000  Level New York Center
Thu 05:59:43 AM 40.5550 -77.0156 128° Southeast 339 390 19,000  Level New York Center
Thu 06:00:40 AM 40.5011 -76.9261 128° Southeast 334 384 19,000  Level New York Center
Thu 06:01:41 AM 40.4397 -76.8225 128° Southeast 339 390 19,000 -49 Level New York Center
Thu 06:02:42 AM 40.3822 -76.7247 128° Southeast 339 390 18,900 -555 Descending New York Center
Thu 06:03:40 AM 40.3483 -76.6100 111° Southeast 339 390 17,900 -1,059 Descending New York Center
Thu 06:04:41 AM 40.3144 -76.4928 111° Southeast 339 390 16,800 -984 Descending New York Center
Thu 06:05:42 AM 40.2819 -76.3922 113° Southeast 339 390 15,900 -1,008 Descending New York Center
Thu 06:06:40 AM 40.2461 -76.2669 111° Southeast 334 384 14,800 -1,008 Descending New York Center
Thu 06:07:41 AM 40.2147 -76.1747 114° Southeast 319 367 13,900 -1,091 Descending New York Center
Thu 06:08:41 AM 40.1764 -76.0575 113° Southeast 314 361 12,600 -1,500 Descending New York Center
Thu 06:09:41 AM 40.1433 -75.9544 113° Southeast 309 356 10,900 -1,623 Descending New York Center
Thu 06:10:43 AM 40.1117 -75.8708 116° Southeast 294 338 9,300 -1,600 Descending New York Center
Thu 06:11:41 AM 40.0433 -75.8089 145° Southeast 273 314 7,700 -1,513 Descending New York Center
Thu 06:12:42 AM 39.9872 -75.7586 146° Southeast 273 314 6,300 -857 Descending New York Center
Thu 06:13:40 AM 39.9217 -75.7297 161° South 244 281 6,000 -458 Descending New York Center
Thu 06:14:40 AM 39.8658 -75.7231 175° South 232 267 5,400 -492 Descending New York Center
Thu 06:15:42 AM 39.8011 -75.7211 179° South 227 261 5,000 -195 Descending New York Center
Thu 06:16:43 AM 39.7539 -75.7017 162° South 204 235 5,000 -454 Level New York Center
Thu 06:17:41 AM 39.7672 -75.6322 76° East 150 173 4,100 -500 Descending New York Center
Thu 06:18:43 AM 39.7989 -75.5778 53° Northeast 167 192 4,000 -303 Descending New York Center
Thu 06:19:40 AM 39.8164 -75.5006 74° East 194 223 3,500 -763 Descending New York Center
Thu 06:20:41 AM 39.8317 -75.4311 74° East 201 231 2,500 -984 Descending New York Center

Login

Don't have an account? Register now (free) for customized features, flight alerts, and more!